首页
METAR-TAF:

METAR-TAF

机场 :

唐卡斯特, 英格兰

纬度: 53-29N, 经度: 001-00W, 海拔: 17米

当前天气观测

该预报发布于19分钟前的15:50 UTC
风速8节,风向西
温度 12°C
湿度 94%
气压 997 hPa
能见度10公里或以上
散云层高于800英尺
多云层高于1700英尺

METAR: EGCN 231550Z 28008KT 9999 SCT008 BKN017 12/11 Q0997

时间: 17:09 (16:09 UTC)

预报

该预报发布于2小时和5分钟前的14:04 UTC
预报有效从23日的 14点(UTC)到 24日的 12点(UTC)
风速6节,风向西南
能见度10公里或以上
多云层高于4500英尺
短暂存在
从 23日的 14点(UTC)到 23日的 24点(UTC)
能見度: 4000
多云层高于700英尺
阵雨
成为
从 24日的 07点(UTC)到 24日的 10点(UTC)
风速10节,风向东北
几率 30% :
短暂存在
从 24日的 07点(UTC)到 24日的 12点(UTC)
能見度: 6000
多云层高于1200英尺
阵雨

TAF: EGCN 231404Z 2314/2412 22006KT 9999 BKN045 TEMPO 2314/2324 4000 SHRA BKN007 BECMG 2407/2410 04010KT PROB30 TEMPO 2407/2412 6000 SHRA BKN012

超过4000个机场的气象观测和天气预报(METAR&TAF报告)。

可查询的气象台以黄色和红色小点在地图上表示。

将鼠标移到小点上方,可查看气象台名称。

然后点击查看天气观测和预报。

如需切换地图:点击带黑十字的绿色按钮放大地图;点击带横线的绿色按钮缩小地图;或者点击绿色箭头查看邻近地区的地图。


METAR-TAF: